sensor_id;sensor_type;location;lat;lon;timestamp;temperature;humidity
18932;DHT22;9598;50.954;3.112;2022-10-31T00:01:50;14.50;99.90
18932;DHT22;9598;50.954;3.112;2022-10-31T00:06:54;14.50;99.90
18932;DHT22;9598;50.954;3.112;2022-10-31T00:11:56;14.50;99.90
18932;DHT22;9598;50.954;3.112;2022-10-31T00:16:58;14.50;99.90
18932;DHT22;9598;50.954;3.112;2022-10-31T00:22:01;14.50;99.90
18932;DHT22;9598;50.954;3.112;2022-10-31T00:27:03;14.40;99.90
18932;DHT22;9598;50.954;3.112;2022-10-31T00:32:05;14.50;99.90
18932;DHT22;9598;50.954;3.112;2022-10-31T00:37:08;14.50;99.90
18932;DHT22;9598;50.954;3.112;2022-10-31T00:42:10;14.40;99.90
18932;DHT22;9598;50.954;3.112;2022-10-31T00:47:13;14.40;99.90
18932;DHT22;9598;50.954;3.112;2022-10-31T00:52:16;14.30;99.90
18932;DHT22;9598;50.954;3.112;2022-10-31T00:57:18;14.30;99.90
18932;DHT22;9598;50.954;3.112;2022-10-31T01:02:21;14.30;99.90
18932;DHT22;9598;50.954;3.112;2022-10-31T01:07:25;14.20;99.90
18932;DHT22;9598;50.954;3.112;2022-10-31T01:12:27;14.20;99.90
18932;DHT22;9598;50.954;3.112;2022-10-31T01:17:29;14.20;99.90
18932;DHT22;9598;50.954;3.112;2022-10-31T01:22:32;14.10;99.90
18932;DHT22;9598;50.954;3.112;2022-10-31T01:27:35;14.10;99.90
18932;DHT22;9598;50.954;3.112;2022-10-31T01:32:37;14.10;99.90
18932;DHT22;9598;50.954;3.112;2022-10-31T01:37:40;14.00;99.90
18932;DHT22;9598;50.954;3.112;2022-10-31T01:42:42;14.00;99.90
18932;DHT22;9598;50.954;3.112;2022-10-31T01:47:45;14.00;99.90
18932;DHT22;9598;50.954;3.112;2022-10-31T01:52:50;14.00;99.90
18932;DHT22;9598;50.954;3.112;2022-10-31T01:57:55;14.00;99.90
18932;DHT22;9598;50.954;3.112;2022-10-31T02:02:59;14.00;99.90
18932;DHT22;9598;50.954;3.112;2022-10-31T02:08:06;13.90;99.90
18932;DHT22;9598;50.954;3.112;2022-10-31T02:13:10;13.90;99.90
18932;DHT22;9598;50.954;3.112;2022-10-31T02:18:19;13.80;99.90
18932;DHT22;9598;50.954;3.112;2022-10-31T02:23:39;13.80;99.90
18932;DHT22;9598;50.954;3.112;2022-10-31T02:29:10;13.70;99.90
18932;DHT22;9598;50.954;3.112;2022-10-31T02:34:22;13.70;99.90
18932;DHT22;9598;50.954;3.112;2022-10-31T02:39:27;13.60;99.90
18932;DHT22;9598;50.954;3.112;2022-10-31T02:44:37;13.50;99.90
18932;DHT22;9598;50.954;3.112;2022-10-31T02:49:44;13.50;99.90
18932;DHT22;9598;50.954;3.112;2022-10-31T02:54:48;13.50;99.90
18932;DHT22;9598;50.954;3.112;2022-10-31T02:59:53;13.40;99.90
18932;DHT22;9598;50.954;3.112;2022-10-31T03:05:25;13.40;99.90
18932;DHT22;9598;50.954;3.112;2022-10-31T03:10:35;13.40;99.90
18932;DHT22;9598;50.954;3.112;2022-10-31T03:15:44;13.40;99.90
18932;DHT22;9598;50.954;3.112;2022-10-31T03:20:54;13.40;99.90
18932;DHT22;9598;50.954;3.112;2022-10-31T03:26:00;13.40;99.90
18932;DHT22;9598;50.954;3.112;2022-10-31T03:31:05;13.40;99.90
18932;DHT22;9598;50.954;3.112;2022-10-31T03:36:14;13.40;99.90
18932;DHT22;9598;50.954;3.112;2022-10-31T03:41:20;13.30;99.90
18932;DHT22;9598;50.954;3.112;2022-10-31T03:46:23;13.30;99.90
18932;DHT22;9598;50.954;3.112;2022-10-31T03:51:35;13.30;99.90
18932;DHT22;9598;50.954;3.112;2022-10-31T03:56:43;13.30;99.90
18932;DHT22;9598;50.954;3.112;2022-10-31T04:01:50;13.40;99.90
18932;DHT22;9598;50.954;3.112;2022-10-31T04:06:57;13.40;99.90
18932;DHT22;9598;50.954;3.112;2022-10-31T04:12:03;13.30;99.90
18932;DHT22;9598;50.954;3.112;2022-10-31T04:17:39;13.30;99.90
18932;DHT22;9598;50.954;3.112;2022-10-31T04:22:43;13.30;99.90
18932;DHT22;9598;50.954;3.112;2022-10-31T04:27:45;13.30;99.90
18932;DHT22;9598;50.954;3.112;2022-10-31T04:32:47;13.30;99.90
18932;DHT22;9598;50.954;3.112;2022-10-31T04:37:51;13.30;99.90
18932;DHT22;9598;50.954;3.112;2022-10-31T04:42:54;13.30;99.90
18932;DHT22;9598;50.954;3.112;2022-10-31T04:47:56;13.20;99.90
18932;DHT22;9598;50.954;3.112;2022-10-31T04:52:59;13.20;99.90
18932;DHT22;9598;50.954;3.112;2022-10-31T04:58:06;13.20;99.90
18932;DHT22;9598;50.954;3.112;2022-10-31T05:03:08;13.10;99.90
18932;DHT22;9598;50.954;3.112;2022-10-31T05:08:11;13.10;99.90
18932;DHT22;9598;50.954;3.112;2022-10-31T05:13:13;13.10;99.90
18932;DHT22;9598;50.954;3.112;2022-10-31T05:18:34;13.00;99.90
18932;DHT22;9598;50.954;3.112;2022-10-31T05:23:56;13.00;99.90
18932;DHT22;9598;50.954;3.112;2022-10-31T05:28:59;12.90;99.90
18932;DHT22;9598;50.954;3.112;2022-10-31T05:34:02;12.90;99.90
18932;DHT22;9598;50.954;3.112;2022-10-31T05:39:20;12.90;99.90
18932;DHT22;9598;50.954;3.112;2022-10-31T05:44:28;12.90;99.90
18932;DHT22;9598;50.954;3.112;2022-10-31T05:49:48;12.90;99.90
18932;DHT22;9598;50.954;3.112;2022-10-31T05:55:10;12.80;99.90
18932;DHT22;9598;50.954;3.112;2022-10-31T06:00:18;12.80;99.90
18932;DHT22;9598;50.954;3.112;2022-10-31T06:05:23;12.80;99.90
18932;DHT22;9598;50.954;3.112;2022-10-31T06:10:28;12.80;99.90
18932;DHT22;9598;50.954;3.112;2022-10-31T06:15:31;12.80;99.90
18932;DHT22;9598;50.954;3.112;2022-10-31T06:20:33;12.80;99.90
18932;DHT22;9598;50.954;3.112;2022-10-31T06:25:39;12.80;99.90
18932;DHT22;9598;50.954;3.112;2022-10-31T06:30:42;12.70;99.90
18932;DHT22;9598;50.954;3.112;2022-10-31T06:35:46;12.70;99.90
18932;DHT22;9598;50.954;3.112;2022-10-31T06:40:51;12.70;99.90
18932;DHT22;9598;50.954;3.112;2022-10-31T06:46:01;12.70;99.90
18932;DHT22;9598;50.954;3.112;2022-10-31T06:51:14;12.60;99.90
18932;DHT22;9598;50.954;3.112;2022-10-31T06:56:19;12.70;99.90
18932;DHT22;9598;50.954;3.112;2022-10-31T07:01:27;12.60;99.90
18932;DHT22;9598;50.954;3.112;2022-10-31T07:06:29;12.60;99.90
18932;DHT22;9598;50.954;3.112;2022-10-31T07:11:33;12.60;99.90
18932;DHT22;9598;50.954;3.112;2022-10-31T07:16:35;12.70;99.90
18932;DHT22;9598;50.954;3.112;2022-10-31T07:21:39;12.70;99.90
18932;DHT22;9598;50.954;3.112;2022-10-31T07:26:43;12.80;99.90
18932;DHT22;9598;50.954;3.112;2022-10-31T07:31:48;12.80;99.90
18932;DHT22;9598;50.954;3.112;2022-10-31T07:36:56;12.90;99.90
18932;DHT22;9598;50.954;3.112;2022-10-31T07:42:00;12.90;99.90
18932;DHT22;9598;50.954;3.112;2022-10-31T07:47:03;13.00;99.90
18932;DHT22;9598;50.954;3.112;2022-10-31T07:52:40;13.00;99.90
18932;DHT22;9598;50.954;3.112;2022-10-31T07:58:14;13.00;99.90
18932;DHT22;9598;50.954;3.112;2022-10-31T08:03:18;13.10;99.90
18932;DHT22;9598;50.954;3.112;2022-10-31T08:08:30;13.10;99.90
18932;DHT22;9598;50.954;3.112;2022-10-31T08:13:34;13.20;99.90
18932;DHT22;9598;50.954;3.112;2022-10-31T08:18:37;13.20;99.90
18932;DHT22;9598;50.954;3.112;2022-10-31T08:23:41;13.30;99.90
18932;DHT22;9598;50.954;3.112;2022-10-31T08:28:44;13.40;99.90
18932;DHT22;9598;50.954;3.112;2022-10-31T08:33:47;13.40;99.90
18932;DHT22;9598;50.954;3.112;2022-10-31T08:38:53;13.40;99.90
18932;DHT22;9598;50.954;3.112;2022-10-31T08:43:56;13.50;99.90
18932;DHT22;9598;50.954;3.112;2022-10-31T08:48:58;13.60;99.90
18932;DHT22;9598;50.954;3.112;2022-10-31T08:54:00;13.70;99.90
18932;DHT22;9598;50.954;3.112;2022-10-31T08:59:22;13.80;99.90
18932;DHT22;9598;50.954;3.112;2022-10-31T09:04:43;13.90;99.90
18932;DHT22;9598;50.954;3.112;2022-10-31T09:09:46;14.00;99.90
18932;DHT22;9598;50.954;3.112;2022-10-31T09:14:50;14.10;99.90
18932;DHT22;9598;50.954;3.112;2022-10-31T09:19:58;14.20;99.90
18932;DHT22;9598;50.954;3.112;2022-10-31T09:25:06;14.30;99.90
18932;DHT22;9598;50.954;3.112;2022-10-31T09:30:10;14.30;99.90
18932;DHT22;9598;50.954;3.112;2022-10-31T09:35:13;14.40;99.90
18932;DHT22;9598;50.954;3.112;2022-10-31T09:40:16;14.50;99.90
18932;DHT22;9598;50.954;3.112;2022-10-31T09:45:26;14.60;99.90
18932;DHT22;9598;50.954;3.112;2022-10-31T09:50:37;14.80;99.90
18932;DHT22;9598;50.954;3.112;2022-10-31T09:56:08;14.90;99.90
18932;DHT22;9598;50.954;3.112;2022-10-31T10:01:27;14.90;99.90
18932;DHT22;9598;50.954;3.112;2022-10-31T10:06:34;14.90;99.90
18932;DHT22;9598;50.954;3.112;2022-10-31T10:12:05;14.90;99.90
18932;DHT22;9598;50.954;3.112;2022-10-31T10:17:21;15.00;99.90
18932;DHT22;9598;50.954;3.112;2022-10-31T10:22:31;15.10;99.90
18932;DHT22;9598;50.954;3.112;2022-10-31T10:27:48;15.20;99.90
18932;DHT22;9598;50.954;3.112;2022-10-31T10:32:54;15.30;99.90
18932;DHT22;9598;50.954;3.112;2022-10-31T10:38:02;15.40;99.90
18932;DHT22;9598;50.954;3.112;2022-10-31T10:43:21;15.50;99.90
18932;DHT22;9598;50.954;3.112;2022-10-31T10:48:30;15.60;99.90
18932;DHT22;9598;50.954;3.112;2022-10-31T10:53:46;15.70;99.90
18932;DHT22;9598;50.954;3.112;2022-10-31T10:59:01;15.80;99.90
18932;DHT22;9598;50.954;3.112;2022-10-31T11:04:21;15.90;99.90
18932;DHT22;9598;50.954;3.112;2022-10-31T11:09:25;16.00;99.90
18932;DHT22;9598;50.954;3.112;2022-10-31T11:14:28;16.10;99.90
18932;DHT22;9598;50.954;3.112;2022-10-31T11:19:31;16.10;99.90
18932;DHT22;9598;50.954;3.112;2022-10-31T11:24:38;16.20;99.90
18932;DHT22;9598;50.954;3.112;2022-10-31T11:29:40;16.30;99.90
18932;DHT22;9598;50.954;3.112;2022-10-31T11:34:45;16.40;99.90
18932;DHT22;9598;50.954;3.112;2022-10-31T11:39:51;16.60;99.90
18932;DHT22;9598;50.954;3.112;2022-10-31T11:44:55;16.90;99.90
18932;DHT22;9598;50.954;3.112;2022-10-31T11:50:02;16.90;99.90
18932;DHT22;9598;50.954;3.112;2022-10-31T11:55:30;17.10;99.90
18932;DHT22;9598;50.954;3.112;2022-10-31T12:00:36;17.10;99.90
18932;DHT22;9598;50.954;3.112;2022-10-31T12:05:41;17.20;99.90
18932;DHT22;9598;50.954;3.112;2022-10-31T12:10:51;17.30;99.90
18932;DHT22;9598;50.954;3.112;2022-10-31T12:16:00;17.40;99.90
18932;DHT22;9598;50.954;3.112;2022-10-31T12:21:17;17.50;99.90
18932;DHT22;9598;50.954;3.112;2022-10-31T12:26:28;17.50;99.90
18932;DHT22;9598;50.954;3.112;2022-10-31T12:31:42;17.60;99.90
18932;DHT22;9598;50.954;3.112;2022-10-31T12:36:54;17.60;99.90
18932;DHT22;9598;50.954;3.112;2022-10-31T12:42:09;17.60;99.90
18932;DHT22;9598;50.954;3.112;2022-10-31T12:53:09;17.60;99.90
18932;DHT22;9598;50.954;3.112;2022-10-31T12:58:21;17.60;99.90
18932;DHT22;9598;50.954;3.112;2022-10-31T13:03:28;17.70;99.90
18932;DHT22;9598;50.954;3.112;2022-10-31T13:08:36;17.70;99.90
18932;DHT22;9598;50.954;3.112;2022-10-31T13:13:53;17.70;99.90
18932;DHT22;9598;50.954;3.112;2022-10-31T13:18:58;17.70;99.90
18932;DHT22;9598;50.954;3.112;2022-10-31T13:24:05;17.60;99.90
18932;DHT22;9598;50.954;3.112;2022-10-31T13:29:17;17.60;99.90
18932;DHT22;9598;50.954;3.112;2022-10-31T13:34:25;17.60;99.90
18932;DHT22;9598;50.954;3.112;2022-10-31T13:39:38;17.60;99.90
18932;DHT22;9598;50.954;3.112;2022-10-31T13:44:41;17.60;99.90
18932;DHT22;9598;50.954;3.112;2022-10-31T13:49:43;17.60;99.90
18932;DHT22;9598;50.954;3.112;2022-10-31T13:54:49;17.60;99.90
18932;DHT22;9598;50.954;3.112;2022-10-31T13:59:58;17.60;99.90
18932;DHT22;9598;50.954;3.112;2022-10-31T14:05:03;17.70;99.90
18932;DHT22;9598;50.954;3.112;2022-10-31T14:10:21;17.70;99.90
18932;DHT22;9598;50.954;3.112;2022-10-31T14:15:25;17.70;99.90
18932;DHT22;9598;50.954;3.112;2022-10-31T14:20:35;17.80;99.90
18932;DHT22;9598;50.954;3.112;2022-10-31T14:25:39;17.80;99.90
18932;DHT22;9598;50.954;3.112;2022-10-31T14:30:51;17.80;99.90
18932;DHT22;9598;50.954;3.112;2022-10-31T14:36:00;17.80;99.90
18932;DHT22;9598;50.954;3.112;2022-10-31T14:41:23;17.80;99.90
18932;DHT22;9598;50.954;3.112;2022-10-31T14:46:37;17.80;99.90
18932;DHT22;9598;50.954;3.112;2022-10-31T14:51:44;17.80;99.90
18932;DHT22;9598;50.954;3.112;2022-10-31T14:56:51;17.80;99.90
18932;DHT22;9598;50.954;3.112;2022-10-31T15:01:58;17.80;99.90
18932;DHT22;9598;50.954;3.112;2022-10-31T15:07:05;17.80;99.90
18932;DHT22;9598;50.954;3.112;2022-10-31T15:12:25;17.80;99.90
18932;DHT22;9598;50.954;3.112;2022-10-31T15:17:27;17.80;99.90
18932;DHT22;9598;50.954;3.112;2022-10-31T15:22:30;17.80;99.90
18932;DHT22;9598;50.954;3.112;2022-10-31T15:27:35;17.80;99.90
18932;DHT22;9598;50.954;3.112;2022-10-31T15:32:44;17.70;99.90
18932;DHT22;9598;50.954;3.112;2022-10-31T15:37:46;17.70;99.90
18932;DHT22;9598;50.954;3.112;2022-10-31T15:42:51;17.70;99.90
18932;DHT22;9598;50.954;3.112;2022-10-31T15:47:57;17.60;99.90
18932;DHT22;9598;50.954;3.112;2022-10-31T15:53:00;17.60;99.90
18932;DHT22;9598;50.954;3.112;2022-10-31T15:58:10;17.50;99.90
18932;DHT22;9598;50.954;3.112;2022-10-31T16:03:24;17.50;99.90
18932;DHT22;9598;50.954;3.112;2022-10-31T16:08:33;17.50;99.90
18932;DHT22;9598;50.954;3.112;2022-10-31T16:13:39;17.40;99.90
18932;DHT22;9598;50.954;3.112;2022-10-31T16:18:42;17.40;99.90
18932;DHT22;9598;50.954;3.112;2022-10-31T16:23:46;17.40;99.90
18932;DHT22;9598;50.954;3.112;2022-10-31T16:28:55;17.30;99.90
18932;DHT22;9598;50.954;3.112;2022-10-31T16:34:10;17.20;99.90
18932;DHT22;9598;50.954;3.112;2022-10-31T16:39:14;17.20;99.90
18932;DHT22;9598;50.954;3.112;2022-10-31T16:44:22;17.10;99.90
18932;DHT22;9598;50.954;3.112;2022-10-31T16:49:24;17.10;99.90
18932;DHT22;9598;50.954;3.112;2022-10-31T16:54:28;17.10;99.90
18932;DHT22;9598;50.954;3.112;2022-10-31T16:59:33;17.00;99.90
18932;DHT22;9598;50.954;3.112;2022-10-31T17:04:35;17.00;99.90
18932;DHT22;9598;50.954;3.112;2022-10-31T17:09:38;17.00;99.90
18932;DHT22;9598;50.954;3.112;2022-10-31T17:14:41;17.00;99.90
18932;DHT22;9598;50.954;3.112;2022-10-31T17:19:44;17.00;99.90
18932;DHT22;9598;50.954;3.112;2022-10-31T17:24:47;16.90;99.90
18932;DHT22;9598;50.954;3.112;2022-10-31T17:29:50;16.90;99.90
18932;DHT22;9598;50.954;3.112;2022-10-31T17:34:52;16.90;99.90
18932;DHT22;9598;50.954;3.112;2022-10-31T17:39:55;16.90;99.90
18932;DHT22;9598;50.954;3.112;2022-10-31T17:44:59;16.90;99.90
18932;DHT22;9598;50.954;3.112;2022-10-31T17:50:01;16.90;99.90
18932;DHT22;9598;50.954;3.112;2022-10-31T17:55:03;16.90;99.90
18932;DHT22;9598;50.954;3.112;2022-10-31T18:00:10;16.90;99.90
18932;DHT22;9598;50.954;3.112;2022-10-31T18:05:12;16.80;99.90
18932;DHT22;9598;50.954;3.112;2022-10-31T18:10:14;16.90;99.90
18932;DHT22;9598;50.954;3.112;2022-10-31T18:15:18;16.80;99.90
18932;DHT22;9598;50.954;3.112;2022-10-31T18:20:20;16.80;99.90
18932;DHT22;9598;50.954;3.112;2022-10-31T18:25:23;16.80;99.90
18932;DHT22;9598;50.954;3.112;2022-10-31T18:30:26;16.80;99.90
18932;DHT22;9598;50.954;3.112;2022-10-31T18:35:28;16.80;99.90
18932;DHT22;9598;50.954;3.112;2022-10-31T18:40:31;16.80;99.90
18932;DHT22;9598;50.954;3.112;2022-10-31T18:45:36;16.80;99.90
18932;DHT22;9598;50.954;3.112;2022-10-31T18:50:38;16.80;99.90
18932;DHT22;9598;50.954;3.112;2022-10-31T18:55:41;16.90;99.90
18932;DHT22;9598;50.954;3.112;2022-10-31T19:00:45;16.80;99.90
18932;DHT22;9598;50.954;3.112;2022-10-31T19:05:47;16.80;99.90
18932;DHT22;9598;50.954;3.112;2022-10-31T19:10:49;16.80;99.90
18932;DHT22;9598;50.954;3.112;2022-10-31T19:15:53;16.80;99.90
18932;DHT22;9598;50.954;3.112;2022-10-31T19:20:55;16.90;99.90
18932;DHT22;9598;50.954;3.112;2022-10-31T19:25:57;16.90;99.90
18932;DHT22;9598;50.954;3.112;2022-10-31T19:31:01;16.90;99.90
18932;DHT22;9598;50.954;3.112;2022-10-31T19:36:05;16.90;99.90
18932;DHT22;9598;50.954;3.112;2022-10-31T19:41:11;16.90;99.90
18932;DHT22;9598;50.954;3.112;2022-10-31T19:46:16;16.90;99.90
18932;DHT22;9598;50.954;3.112;2022-10-31T19:51:20;16.90;99.90
18932;DHT22;9598;50.954;3.112;2022-10-31T19:56:23;16.90;99.90
18932;DHT22;9598;50.954;3.112;2022-10-31T20:01:26;16.90;99.90
18932;DHT22;9598;50.954;3.112;2022-10-31T20:06:30;16.90;99.90
18932;DHT22;9598;50.954;3.112;2022-10-31T20:11:35;16.80;99.90
18932;DHT22;9598;50.954;3.112;2022-10-31T20:16:39;16.80;99.90
18932;DHT22;9598;50.954;3.112;2022-10-31T20:21:41;16.80;99.90
18932;DHT22;9598;50.954;3.112;2022-10-31T20:26:43;16.80;99.90
18932;DHT22;9598;50.954;3.112;2022-10-31T20:31:49;16.80;99.90
18932;DHT22;9598;50.954;3.112;2022-10-31T20:36:51;16.90;99.90
18932;DHT22;9598;50.954;3.112;2022-10-31T20:41:53;16.90;99.90
18932;DHT22;9598;50.954;3.112;2022-10-31T20:46:57;16.90;99.90
18932;DHT22;9598;50.954;3.112;2022-10-31T20:51:59;16.90;99.90
18932;DHT22;9598;50.954;3.112;2022-10-31T20:57:01;16.90;99.90
18932;DHT22;9598;50.954;3.112;2022-10-31T21:02:04;16.80;99.90
18932;DHT22;9598;50.954;3.112;2022-10-31T21:07:07;16.90;99.90
18932;DHT22;9598;50.954;3.112;2022-10-31T21:12:09;16.90;99.90
18932;DHT22;9598;50.954;3.112;2022-10-31T21:17:12;16.90;99.90
18932;DHT22;9598;50.954;3.112;2022-10-31T21:22:14;16.80;99.90
18932;DHT22;9598;50.954;3.112;2022-10-31T21:27:16;16.80;99.90
18932;DHT22;9598;50.954;3.112;2022-10-31T21:32:20;16.80;99.90
18932;DHT22;9598;50.954;3.112;2022-10-31T21:37:22;16.80;99.90
18932;DHT22;9598;50.954;3.112;2022-10-31T21:42:24;16.80;99.90
18932;DHT22;9598;50.954;3.112;2022-10-31T21:47:27;16.80;99.90
18932;DHT22;9598;50.954;3.112;2022-10-31T21:52:29;16.80;99.90
18932;DHT22;9598;50.954;3.112;2022-10-31T21:57:31;16.80;99.90
18932;DHT22;9598;50.954;3.112;2022-10-31T22:02:35;16.80;99.90
18932;DHT22;9598;50.954;3.112;2022-10-31T22:07:37;16.90;99.90
18932;DHT22;9598;50.954;3.112;2022-10-31T22:12:39;16.90;99.90
18932;DHT22;9598;50.954;3.112;2022-10-31T22:17:42;16.90;99.90
18932;DHT22;9598;50.954;3.112;2022-10-31T22:22:45;16.90;99.90
18932;DHT22;9598;50.954;3.112;2022-10-31T22:27:47;17.00;99.90
18932;DHT22;9598;50.954;3.112;2022-10-31T22:32:51;17.00;99.90
18932;DHT22;9598;50.954;3.112;2022-10-31T22:37:53;17.00;99.90
18932;DHT22;9598;50.954;3.112;2022-10-31T22:42:55;17.00;99.90
18932;DHT22;9598;50.954;3.112;2022-10-31T22:47:58;17.00;99.90
18932;DHT22;9598;50.954;3.112;2022-10-31T22:53:01;17.00;99.90
18932;DHT22;9598;50.954;3.112;2022-10-31T22:58:03;17.00;99.90
18932;DHT22;9598;50.954;3.112;2022-10-31T23:03:06;17.00;99.90
18932;DHT22;9598;50.954;3.112;2022-10-31T23:08:08;17.00;99.90
18932;DHT22;9598;50.954;3.112;2022-10-31T23:13:10;17.10;99.90
18932;DHT22;9598;50.954;3.112;2022-10-31T23:18:32;17.10;99.90
18932;DHT22;9598;50.954;3.112;2022-10-31T23:23:35;17.10;99.90
18932;DHT22;9598;50.954;3.112;2022-10-31T23:28:38;17.10;99.90
18932;DHT22;9598;50.954;3.112;2022-10-31T23:33:41;17.20;99.90
18932;DHT22;9598;50.954;3.112;2022-10-31T23:38:43;17.20;99.90
18932;DHT22;9598;50.954;3.112;2022-10-31T23:43:45;17.20;99.90
18932;DHT22;9598;50.954;3.112;2022-10-31T23:48:49;17.30;99.90
18932;DHT22;9598;50.954;3.112;2022-10-31T23:53:53;17.30;99.90
18932;DHT22;9598;50.954;3.112;2022-10-31T23:58:55;17.30;99.90
